sensor_id;sensor_type;location;lat;lon;timestamp;P1;durP1;ratioP1;P2;durP2;ratioP2
29538;SDS011;16482;51.046;4.498;2023-10-19T00:01:13;3.05;;;1.75;;
29538;SDS011;16482;51.046;4.498;2023-10-19T00:03:40;2.97;;;1.52;;
29538;SDS011;16482;51.046;4.498;2023-10-19T00:06:06;3.22;;;1.50;;
29538;SDS011;16482;51.046;4.498;2023-10-19T00:08:32;2.53;;;1.70;;
29538;SDS011;16482;51.046;4.498;2023-10-19T00:11:07;2.53;;;1.70;;
29538;SDS011;16482;51.046;4.498;2023-10-19T00:13:36;2.63;;;1.50;;
29538;SDS011;16482;51.046;4.498;2023-10-19T00:16:04;1.85;;;1.40;;
29538;SDS011;16482;51.046;4.498;2023-10-19T00:19:03;3.00;;;1.70;;
29538;SDS011;16482;51.046;4.498;2023-10-19T00:21:29;2.63;;;1.50;;
29538;SDS011;16482;51.046;4.498;2023-10-19T00:24:08;2.28;;;1.52;;
29538;SDS011;16482;51.046;4.498;2023-10-19T00:26:41;2.00;;;1.52;;
29538;SDS011;16482;51.046;4.498;2023-10-19T00:29:09;2.88;;;1.60;;
29538;SDS011;16482;51.046;4.498;2023-10-19T00:31:56;2.30;;;1.50;;
29538;SDS011;16482;51.046;4.498;2023-10-19T00:34:25;2.28;;;1.42;;
29538;SDS011;16482;51.046;4.498;2023-10-19T00:36:54;2.05;;;1.38;;
29538;SDS011;16482;51.046;4.498;2023-10-19T00:39:22;1.85;;;1.40;;
29538;SDS011;16482;51.046;4.498;2023-10-19T00:41:52;1.92;;;1.23;;
29538;SDS011;16482;51.046;4.498;2023-10-19T00:44:22;2.40;;;1.40;;
29538;SDS011;16482;51.046;4.498;2023-10-19T00:47:01;2.75;;;1.60;;
29538;SDS011;16482;51.046;4.498;2023-10-19T00:49:36;1.83;;;1.20;;
29538;SDS011;16482;51.046;4.498;2023-10-19T00:52:03;2.50;;;1.25;;
29538;SDS011;16482;51.046;4.498;2023-10-19T00:54:47;2.17;;;1.38;;
29538;SDS011;16482;51.046;4.498;2023-10-19T00:57:21;3.88;;;1.58;;
29538;SDS011;16482;51.046;4.498;2023-10-19T00:59:58;1.98;;;1.30;;
29538;SDS011;16482;51.046;4.498;2023-10-19T01:02:43;2.05;;;1.35;;
29538;SDS011;16482;51.046;4.498;2023-10-19T01:05:10;2.65;;;1.40;;
29538;SDS011;16482;51.046;4.498;2023-10-19T01:07:38;1.88;;;1.30;;
29538;SDS011;16482;51.046;4.498;2023-10-19T01:10:09;2.13;;;1.23;;
29538;SDS011;16482;51.046;4.498;2023-10-19T01:12:48;1.75;;;1.05;;
29538;SDS011;16482;51.046;4.498;2023-10-19T01:15:18;2.22;;;1.10;;
29538;SDS011;16482;51.046;4.498;2023-10-19T01:17:53;1.10;;;0.88;;
29538;SDS011;16482;51.046;4.498;2023-10-19T01:20:24;1.98;;;1.20;;
29538;SDS011;16482;51.046;4.498;2023-10-19T01:22:58;2.83;;;1.30;;
29538;SDS011;16482;51.046;4.498;2023-10-19T01:25:53;1.98;;;1.10;;
29538;SDS011;16482;51.046;4.498;2023-10-19T01:28:21;2.25;;;1.27;;
29538;SDS011;16482;51.046;4.498;2023-10-19T01:31:09;2.17;;;1.20;;
29538;SDS011;16482;51.046;4.498;2023-10-19T01:33:41;2.60;;;1.30;;
29538;SDS011;16482;51.046;4.498;2023-10-19T01:36:08;2.28;;;1.00;;
29538;SDS011;16482;51.046;4.498;2023-10-19T01:38:37;1.73;;;0.90;;
29538;SDS011;16482;51.046;4.498;2023-10-19T01:41:07;1.67;;;1.02;;
29538;SDS011;16482;51.046;4.498;2023-10-19T01:43:43;1.92;;;1.05;;
29538;SDS011;16482;51.046;4.498;2023-10-19T01:46:12;2.25;;;1.05;;
29538;SDS011;16482;51.046;4.498;2023-10-19T01:48:47;2.10;;;1.00;;
29538;SDS011;16482;51.046;4.498;2023-10-19T01:51:25;1.90;;;1.00;;
29538;SDS011;16482;51.046;4.498;2023-10-19T01:53:53;3.53;;;1.05;;
29538;SDS011;16482;51.046;4.498;2023-10-19T01:56:27;4.00;;;1.10;;
29538;SDS011;16482;51.046;4.498;2023-10-19T01:58:58;2.97;;;0.93;;
29538;SDS011;16482;51.046;4.498;2023-10-19T02:01:32;2.22;;;1.13;;
29538;SDS011;16482;51.046;4.498;2023-10-19T02:03:58;2.13;;;1.10;;
29538;SDS011;16482;51.046;4.498;2023-10-19T02:06:33;2.45;;;1.23;;
29538;SDS011;16482;51.046;4.498;2023-10-19T02:09:10;2.47;;;1.00;;
29538;SDS011;16482;51.046;4.498;2023-10-19T02:11:42;2.80;;;1.10;;
29538;SDS011;16482;51.046;4.498;2023-10-19T02:14:12;1.77;;;0.90;;
29538;SDS011;16482;51.046;4.498;2023-10-19T02:16:51;1.20;;;0.70;;
29538;SDS011;16482;51.046;4.498;2023-10-19T02:19:18;1.80;;;0.82;;
29538;SDS011;16482;51.046;4.498;2023-10-19T02:21:47;1.55;;;0.90;;
29538;SDS011;16482;51.046;4.498;2023-10-19T02:24:19;2.25;;;1.00;;
29538;SDS011;16482;51.046;4.498;2023-10-19T02:26:46;1.50;;;0.80;;
29538;SDS011;16482;51.046;4.498;2023-10-19T02:29:16;2.03;;;1.00;;
29538;SDS011;16482;51.046;4.498;2023-10-19T02:31:43;3.17;;;1.30;;
29538;SDS011;16482;51.046;4.498;2023-10-19T02:34:10;2.78;;;1.02;;
29538;SDS011;16482;51.046;4.498;2023-10-19T02:36:40;2.10;;;1.30;;
29538;SDS011;16482;51.046;4.498;2023-10-19T02:39:08;3.22;;;1.30;;
29538;SDS011;16482;51.046;4.498;2023-10-19T02:41:35;3.25;;;1.40;;
29538;SDS011;16482;51.046;4.498;2023-10-19T02:44:03;2.70;;;1.17;;
29538;SDS011;16482;51.046;4.498;2023-10-19T02:46:30;2.40;;;1.20;;
29538;SDS011;16482;51.046;4.498;2023-10-19T02:49:00;2.88;;;1.27;;
29538;SDS011;16482;51.046;4.498;2023-10-19T02:51:30;3.50;;;1.25;;
29538;SDS011;16482;51.046;4.498;2023-10-19T02:53:56;2.25;;;1.33;;
29538;SDS011;16482;51.046;4.498;2023-10-19T02:56:27;3.70;;;1.30;;
29538;SDS011;16482;51.046;4.498;2023-10-19T02:59:02;3.47;;;1.55;;
29538;SDS011;16482;51.046;4.498;2023-10-19T03:01:34;2.25;;;1.40;;
29538;SDS011;16482;51.046;4.498;2023-10-19T03:04:00;3.15;;;1.50;;
29538;SDS011;16482;51.046;4.498;2023-10-19T03:06:30;3.00;;;1.25;;
29538;SDS011;16482;51.046;4.498;2023-10-19T03:08:57;3.72;;;1.63;;
29538;SDS011;16482;51.046;4.498;2023-10-19T03:11:26;3.20;;;1.40;;
29538;SDS011;16482;51.046;4.498;2023-10-19T03:13:53;2.60;;;1.42;;
29538;SDS011;16482;51.046;4.498;2023-10-19T03:16:28;2.72;;;1.48;;
29538;SDS011;16482;51.046;4.498;2023-10-19T03:18:58;3.55;;;1.80;;
29538;SDS011;16482;51.046;4.498;2023-10-19T03:21:32;4.38;;;1.50;;
29538;SDS011;16482;51.046;4.498;2023-10-19T03:23:59;4.85;;;1.70;;
29538;SDS011;16482;51.046;4.498;2023-10-19T03:26:30;2.80;;;1.40;;
29538;SDS011;16482;51.046;4.498;2023-10-19T03:29:02;3.97;;;1.70;;
29538;SDS011;16482;51.046;4.498;2023-10-19T03:31:37;3.50;;;1.40;;
29538;SDS011;16482;51.046;4.498;2023-10-19T03:34:10;3.25;;;1.42;;
29538;SDS011;16482;51.046;4.498;2023-10-19T03:36:41;4.55;;;1.52;;
29538;SDS011;16482;51.046;4.498;2023-10-19T03:39:08;4.30;;;1.60;;
29538;SDS011;16482;51.046;4.498;2023-10-19T03:41:38;1.92;;;1.27;;
29538;SDS011;16482;51.046;4.498;2023-10-19T03:44:07;3.10;;;1.63;;
29538;SDS011;16482;51.046;4.498;2023-10-19T03:46:44;2.47;;;1.20;;
29538;SDS011;16482;51.046;4.498;2023-10-19T03:49:23;4.80;;;1.60;;
29538;SDS011;16482;51.046;4.498;2023-10-19T03:52:08;4.00;;;1.55;;
29538;SDS011;16482;51.046;4.498;2023-10-19T03:54:34;2.92;;;1.50;;
29538;SDS011;16482;51.046;4.498;2023-10-19T03:57:13;3.53;;;1.50;;
29538;SDS011;16482;51.046;4.498;2023-10-19T03:59:44;4.90;;;2.05;;
29538;SDS011;16482;51.046;4.498;2023-10-19T04:02:19;4.05;;;1.60;;
29538;SDS011;16482;51.046;4.498;2023-10-19T04:04:48;2.85;;;1.48;;
29538;SDS011;16482;51.046;4.498;2023-10-19T04:07:17;4.28;;;1.90;;
29538;SDS011;16482;51.046;4.498;2023-10-19T04:09:50;3.45;;;1.60;;
29538;SDS011;16482;51.046;4.498;2023-10-19T04:12:44;3.03;;;1.55;;
29538;SDS011;16482;51.046;4.498;2023-10-19T04:15:10;4.40;;;1.60;;
29538;SDS011;16482;51.046;4.498;2023-10-19T04:17:44;5.72;;;1.65;;
29538;SDS011;16482;51.046;4.498;2023-10-19T04:20:12;5.05;;;2.00;;
29538;SDS011;16482;51.046;4.498;2023-10-19T04:22:44;5.40;;;1.60;;
29538;SDS011;16482;51.046;4.498;2023-10-19T04:25:11;3.75;;;1.63;;
29538;SDS011;16482;51.046;4.498;2023-10-19T04:27:54;3.83;;;1.90;;
29538;SDS011;16482;51.046;4.498;2023-10-19T04:30:22;5.18;;;1.60;;
29538;SDS011;16482;51.046;4.498;2023-10-19T04:32:48;3.35;;;1.90;;
29538;SDS011;16482;51.046;4.498;2023-10-19T04:35:15;4.03;;;1.90;;
29538;SDS011;16482;51.046;4.498;2023-10-19T04:37:48;2.70;;;1.75;;
29538;SDS011;16482;51.046;4.498;2023-10-19T04:40:15;5.03;;;1.85;;
29538;SDS011;16482;51.046;4.498;2023-10-19T04:42:41;3.67;;;1.95;;
29538;SDS011;16482;51.046;4.498;2023-10-19T04:45:07;3.00;;;1.30;;
29538;SDS011;16482;51.046;4.498;2023-10-19T04:47:36;2.92;;;1.50;;
29538;SDS011;16482;51.046;4.498;2023-10-19T04:50:03;2.78;;;1.58;;
29538;SDS011;16482;51.046;4.498;2023-10-19T04:52:36;3.63;;;1.48;;
29538;SDS011;16482;51.046;4.498;2023-10-19T04:55:04;3.33;;;1.40;;
29538;SDS011;16482;51.046;4.498;2023-10-19T04:57:30;4.32;;;1.90;;
29538;SDS011;16482;51.046;4.498;2023-10-19T04:59:57;4.07;;;1.73;;
29538;SDS011;16482;51.046;4.498;2023-10-19T05:02:23;3.28;;;1.67;;
29538;SDS011;16482;51.046;4.498;2023-10-19T05:04:49;3.13;;;1.63;;
29538;SDS011;16482;51.046;4.498;2023-10-19T05:07:17;4.35;;;1.83;;
29538;SDS011;16482;51.046;4.498;2023-10-19T05:09:51;4.80;;;1.90;;
29538;SDS011;16482;51.046;4.498;2023-10-19T05:12:19;6.07;;;2.00;;
29538;SDS011;16482;51.046;4.498;2023-10-19T05:14:46;3.47;;;1.58;;
29538;SDS011;16482;51.046;4.498;2023-10-19T05:17:19;4.88;;;1.83;;
29538;SDS011;16482;51.046;4.498;2023-10-19T05:19:48;4.20;;;2.00;;
29538;SDS011;16482;51.046;4.498;2023-10-19T05:22:18;2.88;;;1.73;;
29538;SDS011;16482;51.046;4.498;2023-10-19T05:24:54;3.95;;;1.80;;
29538;SDS011;16482;51.046;4.498;2023-10-19T05:27:20;3.47;;;1.70;;
29538;SDS011;16482;51.046;4.498;2023-10-19T05:29:47;5.18;;;1.95;;
29538;SDS011;16482;51.046;4.498;2023-10-19T05:32:21;5.57;;;1.88;;
29538;SDS011;16482;51.046;4.498;2023-10-19T05:34:50;2.83;;;1.45;;
29538;SDS011;16482;51.046;4.498;2023-10-19T05:37:16;4.55;;;1.73;;
29538;SDS011;16482;51.046;4.498;2023-10-19T05:39:43;4.50;;;1.83;;
29538;SDS011;16482;51.046;4.498;2023-10-19T05:42:09;6.35;;;2.22;;
29538;SDS011;16482;51.046;4.498;2023-10-19T05:44:37;2.85;;;1.52;;
29538;SDS011;16482;51.046;4.498;2023-10-19T05:47:03;5.45;;;1.67;;
29538;SDS011;16482;51.046;4.498;2023-10-19T05:49:29;4.28;;;1.67;;
29538;SDS011;16482;51.046;4.498;2023-10-19T05:51:58;4.75;;;1.75;;
29538;SDS011;16482;51.046;4.498;2023-10-19T05:54:24;5.15;;;2.00;;
29538;SDS011;16482;51.046;4.498;2023-10-19T05:56:50;3.85;;;1.77;;
29538;SDS011;16482;51.046;4.498;2023-10-19T05:59:20;2.47;;;1.45;;
29538;SDS011;16482;51.046;4.498;2023-10-19T06:01:46;4.70;;;1.88;;
29538;SDS011;16482;51.046;4.498;2023-10-19T06:04:14;3.33;;;1.52;;
29538;SDS011;16482;51.046;4.498;2023-10-19T06:06:40;4.28;;;1.80;;
29538;SDS011;16482;51.046;4.498;2023-10-19T06:09:06;2.95;;;1.48;;
29538;SDS011;16482;51.046;4.498;2023-10-19T06:11:35;4.10;;;1.75;;
29538;SDS011;16482;51.046;4.498;2023-10-19T06:14:07;3.42;;;1.60;;
29538;SDS011;16482;51.046;4.498;2023-10-19T06:16:34;3.80;;;1.52;;
29538;SDS011;16482;51.046;4.498;2023-10-19T06:19:00;5.03;;;1.80;;
29538;SDS011;16482;51.046;4.498;2023-10-19T06:21:27;3.65;;;1.73;;
29538;SDS011;16482;51.046;4.498;2023-10-19T06:23:57;5.35;;;1.90;;
29538;SDS011;16482;51.046;4.498;2023-10-19T06:26:31;3.50;;;1.42;;
29538;SDS011;16482;51.046;4.498;2023-10-19T06:29:04;3.75;;;1.70;;
29538;SDS011;16482;51.046;4.498;2023-10-19T06:31:30;4.00;;;1.70;;
29538;SDS011;16482;51.046;4.498;2023-10-19T06:33:56;4.07;;;1.70;;
29538;SDS011;16482;51.046;4.498;2023-10-19T06:36:28;3.35;;;1.88;;
29538;SDS011;16482;51.046;4.498;2023-10-19T06:38:56;4.20;;;1.73;;
29538;SDS011;16482;51.046;4.498;2023-10-19T06:41:22;4.03;;;1.95;;
29538;SDS011;16482;51.046;4.498;2023-10-19T06:43:49;4.20;;;1.70;;
29538;SDS011;16482;51.046;4.498;2023-10-19T06:46:18;2.95;;;1.50;;
29538;SDS011;16482;51.046;4.498;2023-10-19T06:48:44;3.38;;;1.50;;
29538;SDS011;16482;51.046;4.498;2023-10-19T06:51:10;7.13;;;1.75;;
29538;SDS011;16482;51.046;4.498;2023-10-19T06:53:36;3.90;;;1.60;;
29538;SDS011;16482;51.046;4.498;2023-10-19T06:56:02;3.53;;;1.55;;
29538;SDS011;16482;51.046;4.498;2023-10-19T06:58:29;2.58;;;1.42;;
29538;SDS011;16482;51.046;4.498;2023-10-19T07:00:55;4.00;;;1.92;;
29538;SDS011;16482;51.046;4.498;2023-10-19T07:03:21;3.30;;;1.52;;
29538;SDS011;16482;51.046;4.498;2023-10-19T07:05:48;2.75;;;1.40;;
29538;SDS011;16482;51.046;4.498;2023-10-19T07:08:14;6.10;;;1.67;;
29538;SDS011;16482;51.046;4.498;2023-10-19T07:10:40;3.47;;;1.50;;
29538;SDS011;16482;51.046;4.498;2023-10-19T07:13:08;4.30;;;1.65;;
29538;SDS011;16482;51.046;4.498;2023-10-19T07:15:34;4.35;;;1.60;;
29538;SDS011;16482;51.046;4.498;2023-10-19T07:17:59;3.55;;;1.60;;
29538;SDS011;16482;51.046;4.498;2023-10-19T07:20:36;3.13;;;1.48;;
29538;SDS011;16482;51.046;4.498;2023-10-19T07:23:11;4.47;;;1.77;;
29538;SDS011;16482;51.046;4.498;2023-10-19T07:25:47;3.58;;;1.40;;
29538;SDS011;16482;51.046;4.498;2023-10-19T07:28:18;4.43;;;1.98;;
29538;SDS011;16482;51.046;4.498;2023-10-19T07:30:47;3.90;;;1.45;;
29538;SDS011;16482;51.046;4.498;2023-10-19T07:33:14;2.95;;;1.52;;
29538;SDS011;16482;51.046;4.498;2023-10-19T07:35:43;4.07;;;1.77;;
29538;SDS011;16482;51.046;4.498;2023-10-19T07:38:12;4.15;;;1.45;;
29538;SDS011;16482;51.046;4.498;2023-10-19T07:40:39;4.00;;;1.75;;
29538;SDS011;16482;51.046;4.498;2023-10-19T07:43:14;4.00;;;1.55;;
29538;SDS011;16482;51.046;4.498;2023-10-19T07:45:40;3.00;;;1.55;;
29538;SDS011;16482;51.046;4.498;2023-10-19T07:48:07;4.68;;;1.73;;
29538;SDS011;16482;51.046;4.498;2023-10-19T07:50:38;4.63;;;1.65;;
29538;SDS011;16482;51.046;4.498;2023-10-19T07:53:08;3.92;;;1.60;;
29538;SDS011;16482;51.046;4.498;2023-10-19T07:55:45;3.10;;;1.30;;
29538;SDS011;16482;51.046;4.498;2023-10-19T07:58:11;6.05;;;1.75;;
29538;SDS011;16482;51.046;4.498;2023-10-19T08:00:39;3.55;;;1.55;;
29538;SDS011;16482;51.046;4.498;2023-10-19T08:03:09;3.85;;;1.65;;
29538;SDS011;16482;51.046;4.498;2023-10-19T08:05:38;4.55;;;1.70;;
29538;SDS011;16482;51.046;4.498;2023-10-19T08:08:12;3.53;;;1.40;;
29538;SDS011;16482;51.046;4.498;2023-10-19T08:10:38;4.45;;;1.33;;
29538;SDS011;16482;51.046;4.498;2023-10-19T08:13:11;3.10;;;1.55;;
29538;SDS011;16482;51.046;4.498;2023-10-19T08:15:37;4.32;;;1.73;;
29538;SDS011;16482;51.046;4.498;2023-10-19T08:18:12;5.97;;;1.77;;
29538;SDS011;16482;51.046;4.498;2023-10-19T08:20:40;4.75;;;1.80;;
29538;SDS011;16482;51.046;4.498;2023-10-19T08:23:06;7.53;;;2.08;;
29538;SDS011;16482;51.046;4.498;2023-10-19T08:25:34;3.97;;;1.38;;
29538;SDS011;16482;51.046;4.498;2023-10-19T08:28:02;7.40;;;1.48;;
29538;SDS011;16482;51.046;4.498;2023-10-19T08:30:29;4.68;;;1.55;;
29538;SDS011;16482;51.046;4.498;2023-10-19T08:32:54;3.60;;;1.30;;
29538;SDS011;16482;51.046;4.498;2023-10-19T08:35:23;3.28;;;1.70;;
29538;SDS011;16482;51.046;4.498;2023-10-19T08:37:55;3.88;;;1.88;;
29538;SDS011;16482;51.046;4.498;2023-10-19T08:40:25;4.18;;;1.70;;
29538;SDS011;16482;51.046;4.498;2023-10-19T08:42:52;5.82;;;1.50;;
29538;SDS011;16482;51.046;4.498;2023-10-19T08:45:20;4.22;;;1.58;;
29538;SDS011;16482;51.046;4.498;2023-10-19T08:47:53;5.50;;;1.48;;
29538;SDS011;16482;51.046;4.498;2023-10-19T08:50:24;4.35;;;1.73;;
29538;SDS011;16482;51.046;4.498;2023-10-19T08:52:56;4.25;;;1.63;;
29538;SDS011;16482;51.046;4.498;2023-10-19T08:55:37;4.38;;;1.65;;
29538;SDS011;16482;51.046;4.498;2023-10-19T08:58:20;6.50;;;1.77;;
29538;SDS011;16482;51.046;4.498;2023-10-19T09:00:50;3.90;;;1.77;;
29538;SDS011;16482;51.046;4.498;2023-10-19T09:03:19;4.15;;;1.58;;
29538;SDS011;16482;51.046;4.498;2023-10-19T09:05:47;5.10;;;1.90;;
29538;SDS011;16482;51.046;4.498;2023-10-19T09:08:16;4.65;;;1.58;;
29538;SDS011;16482;51.046;4.498;2023-10-19T09:10:43;4.50;;;1.58;;
29538;SDS011;16482;51.046;4.498;2023-10-19T09:13:10;5.97;;;1.65;;
29538;SDS011;16482;51.046;4.498;2023-10-19T09:15:40;7.57;;;2.17;;
29538;SDS011;16482;51.046;4.498;2023-10-19T09:18:13;6.50;;;1.77;;
29538;SDS011;16482;51.046;4.498;2023-10-19T09:20:43;7.82;;;1.90;;
29538;SDS011;16482;51.046;4.498;2023-10-19T09:23:19;5.15;;;1.95;;
29538;SDS011;16482;51.046;4.498;2023-10-19T09:25:52;4.95;;;1.60;;
29538;SDS011;16482;51.046;4.498;2023-10-19T09:28:19;5.65;;;1.90;;
29538;SDS011;16482;51.046;4.498;2023-10-19T09:30:49;3.72;;;1.65;;
29538;SDS011;16482;51.046;4.498;2023-10-19T09:33:16;5.40;;;2.00;;
29538;SDS011;16482;51.046;4.498;2023-10-19T09:35:45;5.10;;;1.90;;
29538;SDS011;16482;51.046;4.498;2023-10-19T09:38:15;5.65;;;1.75;;
29538;SDS011;16482;51.046;4.498;2023-10-19T09:40:46;4.65;;;1.90;;
29538;SDS011;16482;51.046;4.498;2023-10-19T09:43:22;5.85;;;1.77;;
29538;SDS011;16482;51.046;4.498;2023-10-19T09:46:09;3.95;;;1.73;;
29538;SDS011;16482;51.046;4.498;2023-10-19T09:48:42;5.63;;;1.80;;
29538;SDS011;16482;51.046;4.498;2023-10-19T09:51:16;7.03;;;1.98;;
29538;SDS011;16482;51.046;4.498;2023-10-19T09:53:46;7.18;;;2.30;;
29538;SDS011;16482;51.046;4.498;2023-10-19T09:56:30;4.78;;;1.77;;
29538;SDS011;16482;51.046;4.498;2023-10-19T09:59:11;5.35;;;1.73;;
29538;SDS011;16482;51.046;4.498;2023-10-19T10:04:32;5.45;;;1.95;;
29538;SDS011;16482;51.046;4.498;2023-10-19T10:06:59;5.25;;;1.90;;
29538;SDS011;16482;51.046;4.498;2023-10-19T10:09:25;6.93;;;2.00;;
29538;SDS011;16482;51.046;4.498;2023-10-19T10:11:52;5.88;;;1.65;;
29538;SDS011;16482;51.046;4.498;2023-10-19T10:14:27;5.35;;;1.90;;
29538;SDS011;16482;51.046;4.498;2023-10-19T10:17:00;5.03;;;1.77;;
29538;SDS011;16482;51.046;4.498;2023-10-19T10:19:27;5.30;;;2.17;;
29538;SDS011;16482;51.046;4.498;2023-10-19T10:22:09;4.82;;;1.88;;
29538;SDS011;16482;51.046;4.498;2023-10-19T10:24:54;4.25;;;1.60;;
29538;SDS011;16482;51.046;4.498;2023-10-19T10:27:23;5.32;;;1.95;;
29538;SDS011;16482;51.046;4.498;2023-10-19T10:29:56;5.47;;;1.95;;
29538;SDS011;16482;51.046;4.498;2023-10-19T10:38:07;8.13;;;2.30;;
29538;SDS011;16482;51.046;4.498;2023-10-19T10:40:47;4.65;;;1.60;;
29538;SDS011;16482;51.046;4.498;2023-10-19T10:43:15;6.20;;;2.28;;
29538;SDS011;16482;51.046;4.498;2023-10-19T10:45:41;6.65;;;2.10;;
29538;SDS011;16482;51.046;4.498;2023-10-19T10:48:14;5.13;;;2.17;;
29538;SDS011;16482;51.046;4.498;2023-10-19T10:50:40;6.22;;;2.13;;
29538;SDS011;16482;51.046;4.498;2023-10-19T10:53:07;6.05;;;2.25;;
29538;SDS011;16482;51.046;4.498;2023-10-19T10:55:38;6.13;;;2.10;;
29538;SDS011;16482;51.046;4.498;2023-10-19T10:58:07;5.55;;;1.83;;
29538;SDS011;16482;51.046;4.498;2023-10-19T11:00:41;6.75;;;2.42;;
29538;SDS011;16482;51.046;4.498;2023-10-19T11:03:10;6.97;;;2.45;;
29538;SDS011;16482;51.046;4.498;2023-10-19T11:05:39;6.60;;;2.03;;
29538;SDS011;16482;51.046;4.498;2023-10-19T11:08:09;5.20;;;2.05;;
29538;SDS011;16482;51.046;4.498;2023-10-19T11:10:39;7.88;;;2.30;;
29538;SDS011;16482;51.046;4.498;2023-10-19T11:13:10;5.53;;;2.10;;
29538;SDS011;16482;51.046;4.498;2023-10-19T11:15:39;8.27;;;2.25;;
29538;SDS011;16482;51.046;4.498;2023-10-19T11:18:27;6.03;;;2.07;;
29538;SDS011;16482;51.046;4.498;2023-10-19T11:21:09;4.60;;;1.60;;
29538;SDS011;16482;51.046;4.498;2023-10-19T11:26:07;6.97;;;2.10;;
29538;SDS011;16482;51.046;4.498;2023-10-19T11:28:37;6.82;;;2.20;;
29538;SDS011;16482;51.046;4.498;2023-10-19T11:31:17;6.85;;;2.00;;
29538;SDS011;16482;51.046;4.498;2023-10-19T11:33:45;4.65;;;1.80;;
29538;SDS011;16482;51.046;4.498;2023-10-19T11:36:15;8.13;;;2.08;;
29538;SDS011;16482;51.046;4.498;2023-10-19T11:38:43;7.78;;;2.13;;
29538;SDS011;16482;51.046;4.498;2023-10-19T11:41:10;6.45;;;2.30;;
29538;SDS011;16482;51.046;4.498;2023-10-19T11:43:38;7.45;;;2.33;;
29538;SDS011;16482;51.046;4.498;2023-10-19T11:46:05;6.78;;;1.90;;
29538;SDS011;16482;51.046;4.498;2023-10-19T11:48:32;4.50;;;1.95;;
29538;SDS011;16482;51.046;4.498;2023-10-19T11:50:59;5.15;;;1.67;;
29538;SDS011;16482;51.046;4.498;2023-10-19T11:53:25;6.72;;;2.08;;
29538;SDS011;16482;51.046;4.498;2023-10-19T11:56:05;5.30;;;1.92;;
29538;SDS011;16482;51.046;4.498;2023-10-19T11:58:35;6.85;;;1.95;;
29538;SDS011;16482;51.046;4.498;2023-10-19T12:01:03;7.60;;;2.00;;
29538;SDS011;16482;51.046;4.498;2023-10-19T12:03:37;7.88;;;1.70;;
29538;SDS011;16482;51.046;4.498;2023-10-19T12:06:05;5.95;;;1.75;;
29538;SDS011;16482;51.046;4.498;2023-10-19T12:08:32;4.00;;;1.83;;
29538;SDS011;16482;51.046;4.498;2023-10-19T12:11:01;5.43;;;2.08;;
29538;SDS011;16482;51.046;4.498;2023-10-19T12:13:29;6.20;;;2.20;;
29538;SDS011;16482;51.046;4.498;2023-10-19T12:15:56;5.63;;;1.98;;
29538;SDS011;16482;51.046;4.498;2023-10-19T12:18:25;5.35;;;1.83;;
29538;SDS011;16482;51.046;4.498;2023-10-19T12:20:51;5.72;;;2.13;;
29538;SDS011;16482;51.046;4.498;2023-10-19T12:23:22;5.22;;;1.83;;
29538;SDS011;16482;51.046;4.498;2023-10-19T12:25:50;7.00;;;2.00;;
29538;SDS011;16482;51.046;4.498;2023-10-19T12:28:16;4.43;;;2.00;;
29538;SDS011;16482;51.046;4.498;2023-10-19T12:30:42;7.70;;;2.00;;
29538;SDS011;16482;51.046;4.498;2023-10-19T12:33:09;4.82;;;1.42;;
29538;SDS011;16482;51.046;4.498;2023-10-19T12:35:40;5.38;;;2.10;;
29538;SDS011;16482;51.046;4.498;2023-10-19T12:38:13;4.88;;;1.90;;
29538;SDS011;16482;51.046;4.498;2023-10-19T12:40:42;5.47;;;1.88;;
29538;SDS011;16482;51.046;4.498;2023-10-19T12:43:09;4.72;;;1.88;;
29538;SDS011;16482;51.046;4.498;2023-10-19T12:45:43;5.13;;;1.90;;
29538;SDS011;16482;51.046;4.498;2023-10-19T12:48:13;5.80;;;2.00;;
29538;SDS011;16482;51.046;4.498;2023-10-19T12:50:42;5.47;;;1.90;;
29538;SDS011;16482;51.046;4.498;2023-10-19T12:53:10;8.63;;;2.35;;
29538;SDS011;16482;51.046;4.498;2023-10-19T12:55:39;5.13;;;1.92;;
29538;SDS011;16482;51.046;4.498;2023-10-19T12:58:12;5.50;;;2.15;;
29538;SDS011;16482;51.046;4.498;2023-10-19T13:00:44;4.88;;;1.83;;
29538;SDS011;16482;51.046;4.498;2023-10-19T13:03:12;4.38;;;1.88;;
29538;SDS011;16482;51.046;4.498;2023-10-19T13:05:39;6.47;;;1.95;;
29538;SDS011;16482;51.046;4.498;2023-10-19T13:08:08;6.43;;;2.15;;
29538;SDS011;16482;51.046;4.498;2023-10-19T13:10:42;4.32;;;1.95;;
29538;SDS011;16482;51.046;4.498;2023-10-19T13:13:12;6.25;;;2.20;;
29538;SDS011;16482;51.046;4.498;2023-10-19T13:15:40;5.65;;;2.13;;
29538;SDS011;16482;51.046;4.498;2023-10-19T13:18:08;4.65;;;1.77;;
29538;SDS011;16482;51.046;4.498;2023-10-19T13:20:41;6.18;;;1.92;;
29538;SDS011;16482;51.046;4.498;2023-10-19T13:23:09;3.53;;;1.65;;
29538;SDS011;16482;51.046;4.498;2023-10-19T13:25:41;5.50;;;1.75;;
29538;SDS011;16482;51.046;4.498;2023-10-19T13:28:11;5.72;;;1.70;;
29538;SDS011;16482;51.046;4.498;2023-10-19T13:30:41;4.82;;;1.70;;
29538;SDS011;16482;51.046;4.498;2023-10-19T13:33:17;3.85;;;1.60;;
29538;SDS011;16482;51.046;4.498;2023-10-19T13:35:46;3.47;;;1.50;;
29538;SDS011;16482;51.046;4.498;2023-10-19T13:38:16;3.60;;;1.33;;
29538;SDS011;16482;51.046;4.498;2023-10-19T13:40:44;4.20;;;1.40;;
29538;SDS011;16482;51.046;4.498;2023-10-19T13:43:11;2.75;;;1.40;;
29538;SDS011;16482;51.046;4.498;2023-10-19T13:45:48;2.10;;;1.25;;
29538;SDS011;16482;51.046;4.498;2023-10-19T13:48:14;3.92;;;1.35;;
29538;SDS011;16482;51.046;4.498;2023-10-19T13:50:45;3.58;;;1.25;;
29538;SDS011;16482;51.046;4.498;2023-10-19T13:53:15;4.65;;;1.75;;
29538;SDS011;16482;51.046;4.498;2023-10-19T13:55:42;4.00;;;1.63;;
29538;SDS011;16482;51.046;4.498;2023-10-19T13:58:11;3.47;;;1.35;;
29538;SDS011;16482;51.046;4.498;2023-10-19T14:00:40;3.70;;;1.40;;
29538;SDS011;16482;51.046;4.498;2023-10-19T14:03:09;2.63;;;1.30;;
29538;SDS011;16482;51.046;4.498;2023-10-19T14:05:45;2.53;;;0.98;;
29538;SDS011;16482;51.046;4.498;2023-10-19T14:08:16;2.97;;;1.20;;
29538;SDS011;16482;51.046;4.498;2023-10-19T14:10:42;2.92;;;0.98;;
29538;SDS011;16482;51.046;4.498;2023-10-19T14:13:08;2.83;;;1.30;;
29538;SDS011;16482;51.046;4.498;2023-10-19T14:15:36;2.42;;;1.30;;
29538;SDS011;16482;51.046;4.498;2023-10-19T14:18:08;3.13;;;1.30;;
29538;SDS011;16482;51.046;4.498;2023-10-19T14:20:38;3.28;;;1.10;;
29538;SDS011;16482;51.046;4.498;2023-10-19T14:23:13;2.78;;;1.10;;
29538;SDS011;16482;51.046;4.498;2023-10-19T14:25:38;3.63;;;1.30;;
29538;SDS011;16482;51.046;4.498;2023-10-19T14:28:08;2.30;;;1.10;;
29538;SDS011;16482;51.046;4.498;2023-10-19T14:30:35;1.92;;;1.00;;
29538;SDS011;16482;51.046;4.498;2023-10-19T14:33:08;2.38;;;1.20;;
29538;SDS011;16482;51.046;4.498;2023-10-19T14:35:39;2.58;;;1.20;;
29538;SDS011;16482;51.046;4.498;2023-10-19T14:38:06;2.90;;;1.13;;
29538;SDS011;16482;51.046;4.498;2023-10-19T14:40:36;1.50;;;1.10;;
29538;SDS011;16482;51.046;4.498;2023-10-19T14:43:09;3.70;;;1.45;;
29538;SDS011;16482;51.046;4.498;2023-10-19T14:45:36;1.40;;;1.00;;
29538;SDS011;16482;51.046;4.498;2023-10-19T14:48:09;1.77;;;1.08;;
29538;SDS011;16482;51.046;4.498;2023-10-19T14:50:38;2.58;;;1.30;;
29538;SDS011;16482;51.046;4.498;2023-10-19T14:53:13;1.42;;;1.02;;
29538;SDS011;16482;51.046;4.498;2023-10-19T14:55:39;3.30;;;1.10;;
29538;SDS011;16482;51.046;4.498;2023-10-19T14:58:12;1.30;;;0.82;;
29538;SDS011;16482;51.046;4.498;2023-10-19T15:00:38;1.88;;;0.98;;
29538;SDS011;16482;51.046;4.498;2023-10-19T15:03:17;2.70;;;1.27;;
29538;SDS011;16482;51.046;4.498;2023-10-19T15:05:44;2.70;;;1.15;;
29538;SDS011;16482;51.046;4.498;2023-10-19T15:08:10;1.80;;;1.10;;
29538;SDS011;16482;51.046;4.498;2023-10-19T15:10:43;1.75;;;1.00;;
29538;SDS011;16482;51.046;4.498;2023-10-19T15:13:09;2.17;;;1.15;;
29538;SDS011;16482;51.046;4.498;2023-10-19T15:15:42;2.15;;;1.10;;
29538;SDS011;16482;51.046;4.498;2023-10-19T15:18:08;2.47;;;0.90;;